Terminal Aerodrome Forecast
Issued by NWS Cleveland, OH

Home | Current Version | Previous Version | Text Only | Print | Product List | Glossary Off
Versions: 1 2 3 4 5 6 7 8 9 10 11 12 13 14 15 16 17 18 19

000
FTUS41 KCLE 191700
TAFERI
TAF
KERI 191740Z 1918/2018 34006KT P6SM SCT250
     FM200000 12004KT P6SM SCT120 BKN250
     FM200300 15004KT P6SM VCSH SCT045 BKN120
      TEMPO 2003/2007 4SM TSRA BR BKN035CB
     FM200900 17007KT P6SM SCT045 BKN120
      TEMPO 2009/2013 5SM BR BKN045
     FM201400 18006KT 6SM HZ SCT035 BKN120
     FM201600 18008KT P6SM SCT045 BKN080=

USA.gov is the U.S. government's official web portal to all federal, state and local government web resources and services.